TAF CYRJ 221945Z 2220/2302 28012G22KT P6SM BKN050
BECMG 2222/2224 22008KT RMK NXT FCST BY 231200Z
From batch tds/tafs/production/2024/4/22/h20_m00_tafs.cache.xml.gz
Issued (30 days ago)
Forecasts
2220/2222 28012G22KT 6+SM BKN5000

---
fcst_time_to: '2024-04-22T22:00:00Z'
wind_gust_kt: '22'
sky_condition:
- sky_cover: BKN
  cloud_base_ft_agl: '5000'
wind_speed_kt: '12'
fcst_time_from: '2024-04-22T20:00:00Z'
wind_dir_degrees: '280'
visibility_statute_mi: 6+

BECMG 2300/2302 22008KT 6+SM BKN5000

---
fcst_time_to: '2024-04-23T02:00:00Z'
sky_condition:
- sky_cover: BKN
  cloud_base_ft_agl: '5000'
time_becoming: '2024-04-23T00:00:00Z'
wind_speed_kt: '8'
fcst_time_from: '2024-04-22T22:00:00Z'
change_indicator: BECMG
wind_dir_degrees: '220'
visibility_statute_mi: 6+

talk